createdAt,value
2022-09-18T00:00:54.036Z,937.51
2022-09-18T00:01:54.570Z,937.56
2022-09-18T00:02:54.865Z,937.57
2022-09-18T00:03:55.367Z,937.61
2022-09-18T00:04:55.554Z,937.61
2022-09-18T00:05:55.880Z,937.58
2022-09-18T00:06:56.910Z,937.63
2022-09-18T00:07:57.498Z,937.63
2022-09-18T00:08:58.162Z,937.63
2022-09-18T00:09:58.876Z,937.64
2022-09-18T00:10:59.791Z,937.66
2022-09-18T00:12:00.319Z,937.67
2022-09-18T00:13:00.788Z,937.64
2022-09-18T00:14:01.378Z,937.67
2022-09-18T00:15:01.701Z,937.66
2022-09-18T00:16:02.048Z,937.69
2022-09-18T00:17:05.796Z,937.68
2022-09-18T00:18:02.597Z,937.69
2022-09-18T00:19:03.226Z,937.67
2022-09-18T00:20:04.136Z,937.63
2022-09-18T00:21:04.754Z,937.62
2022-09-18T00:22:05.376Z,937.62
2022-09-18T00:23:05.778Z,937.64
2022-09-18T00:24:06.367Z,937.61
2022-09-18T00:25:06.663Z,937.62
2022-09-18T00:26:07.274Z,937.65
2022-09-18T00:27:07.758Z,937.62
2022-09-18T00:28:08.459Z,937.63
2022-09-18T00:29:09.368Z,937.61
2022-09-18T00:30:09.569Z,937.65
2022-09-18T00:31:10.349Z,937.57
2022-09-18T00:32:10.719Z,937.59
2022-09-18T00:33:11.330Z,937.58
2022-09-18T00:34:12.234Z,937.58
2022-09-18T00:35:12.578Z,937.54
2022-09-18T00:36:12.774Z,937.51
2022-09-18T00:37:13.502Z,937.52
2022-09-18T00:38:14.449Z,937.52
2022-09-18T00:39:15.363Z,937.56
2022-09-18T00:40:16.430Z,937.55
2022-09-18T00:41:17.453Z,937.49
2022-09-18T00:42:17.965Z,937.52
2022-09-18T00:43:18.887Z,937.49
2022-09-18T00:44:19.071Z,937.44
2022-09-18T00:45:19.402Z,937.47
2022-09-18T00:46:20.174Z,937.49
2022-09-18T00:47:20.247Z,937.48
2022-09-18T00:48:20.456Z,937.45
2022-09-18T00:49:20.799Z,937.4
2022-09-18T00:50:21.111Z,937.36
2022-09-18T00:51:21.313Z,937.33
2022-09-18T00:52:22.517Z,937.32
2022-09-18T00:53:22.681Z,937.36
2022-09-18T00:54:23.287Z,937.38
2022-09-18T00:55:24.305Z,937.34
2022-09-18T00:56:25.234Z,937.37
2022-09-18T00:57:25.858Z,937.37
2022-09-18T00:58:26.694Z,937.37
2022-09-18T00:59:27.724Z,937.4
2022-09-18T01:00:27.935Z,937.35
2022-09-18T01:01:28.182Z,937.32
2022-09-18T01:02:28.750Z,937.33
2022-09-18T01:03:28.935Z,937.33
2022-09-18T01:04:29.539Z,937.32
2022-09-18T01:05:30.444Z,937.27
2022-09-18T01:06:30.777Z,937.31
2022-09-18T01:07:31.206Z,937.27
2022-09-18T01:08:31.673Z,937.29
2022-09-18T01:09:31.949Z,937.24
2022-09-18T01:10:32.266Z,937.23
2022-09-18T01:11:33.176Z,937.26
2022-09-18T01:12:33.593Z,937.24
2022-09-18T01:13:34.027Z,937.26
2022-09-18T01:14:34.344Z,937.28
2022-09-18T01:15:34.646Z,937.27
2022-09-18T01:16:35.651Z,937.25
2022-09-18T01:17:36.280Z,937.26
2022-09-18T01:18:36.886Z,937.29
2022-09-18T01:19:37.872Z,937.32
2022-09-18T01:20:38.480Z,937.33
2022-09-18T01:21:39.385Z,937.31
2022-09-18T01:22:40.331Z,937.34
2022-09-18T01:23:40.797Z,937.33
2022-09-18T01:24:41.455Z,937.31
2022-09-18T01:25:42.044Z,937.34
2022-09-18T01:26:42.355Z,937.31
2022-09-18T01:27:42.944Z,937.36
2022-09-18T01:28:43.375Z,937.34
2022-09-18T01:29:44.294Z,937.34
2022-09-18T01:30:44.890Z,937.37
2022-09-18T01:31:45.448Z,937.3
2022-09-18T01:32:46.469Z,937.34
2022-09-18T01:33:46.653Z,937.3
2022-09-18T01:34:47.291Z,937.31
2022-09-18T01:35:47.762Z,937.28
2022-09-18T01:36:48.391Z,937.3
2022-09-18T01:37:49.404Z,937.29
2022-09-18T01:38:50.298Z,937.31
2022-09-18T01:39:51.286Z,937.32
2022-09-18T01:40:52.178Z,937.32
2022-09-18T01:41:53.083Z,937.34
2022-09-18T01:42:53.893Z,937.33
2022-09-18T01:43:54.339Z,937.36
2022-09-18T01:44:55.247Z,937.32
2022-09-18T01:45:55.450Z,937.33
2022-09-18T01:46:55.655Z,937.39
2022-09-18T01:47:56.470Z,937.36
2022-09-18T01:48:56.774Z,937.4
2022-09-18T01:49:57.685Z,937.35
2022-09-18T01:50:57.990Z,937.37
2022-09-18T01:51:58.902Z,937.39
2022-09-18T01:52:59.842Z,937.38
2022-09-18T01:54:00.822Z,937.33
2022-09-18T01:55:01.214Z,937.31
2022-09-18T01:56:02.232Z,937.32
2022-09-18T01:57:02.418Z,937.35
2022-09-18T01:58:03.326Z,937.31
2022-09-18T01:59:03.749Z,937.26
2022-09-18T02:00:03.945Z,937.33
2022-09-18T02:01:04.532Z,937.3
2022-09-18T02:02:05.279Z,937.27
2022-09-18T02:03:05.255Z,937.29
2022-09-18T02:04:05.465Z,937.25
2022-09-18T02:05:06.351Z,937.23
2022-09-18T02:06:06.536Z,937.27
2022-09-18T02:07:07.019Z,937.28
2022-09-18T02:08:07.328Z,937.27
2022-09-18T02:09:07.963Z,937.31
2022-09-18T02:10:08.870Z,937.29
2022-09-18T02:11:09.564Z,937.28
2022-09-18T02:12:10.195Z,937.24
2022-09-18T02:13:10.854Z,937.24
2022-09-18T02:14:11.543Z,937.3
2022-09-18T02:15:11.732Z,937.28
2022-09-18T02:16:12.688Z,937.26
2022-09-18T02:17:13.061Z,937.31
2022-09-18T02:18:13.242Z,937.28
2022-09-18T02:19:14.130Z,937.23
2022-09-18T02:20:14.748Z,937.26
2022-09-18T02:21:15.650Z,937.23
2022-09-18T02:22:16.564Z,937.21
2022-09-18T02:23:17.204Z,937.22
2022-09-18T02:24:17.393Z,937.14
2022-09-18T02:25:18.005Z,937.18
2022-09-18T02:26:18.295Z,937.16
2022-09-18T02:27:18.620Z,937.2
2022-09-18T02:28:19.226Z,937.11
2022-09-18T02:29:19.934Z,937.11
2022-09-18T02:30:20.822Z,937.13
2022-09-18T02:31:21.203Z,937.12
2022-09-18T02:32:21.288Z,937.11
2022-09-18T02:33:21.800Z,937.12
2022-09-18T02:34:22.420Z,937.04
2022-09-18T02:35:23.311Z,937.1
2022-09-18T02:36:23.509Z,937.13
2022-09-18T02:37:24.412Z,937.12
2022-09-18T02:38:25.015Z,937.18
2022-09-18T02:39:25.650Z,937.1
2022-09-18T02:40:25.915Z,937.11
2022-09-18T02:41:26.060Z,937.09
2022-09-18T02:42:26.663Z,937.09
2022-09-18T02:43:27.578Z,937.15
2022-09-18T02:44:28.061Z,937.11
2022-09-18T02:45:28.971Z,937.07
2022-09-18T02:46:29.216Z,937.11
2022-09-18T02:47:29.653Z,937.16
2022-09-18T02:48:29.842Z,937.15
2022-09-18T02:49:30.453Z,937.14
2022-09-18T02:50:31.356Z,937.04
2022-09-18T02:51:32.264Z,936.99
2022-09-18T02:52:33.171Z,937.06
2022-09-18T02:53:33.390Z,937.01
2022-09-18T02:54:33.560Z,937.03
2022-09-18T02:55:34.164Z,937.02
2022-09-18T02:56:34.865Z,937.06
2022-09-18T02:57:35.477Z,937.05
2022-09-18T02:58:36.087Z,937.07
2022-09-18T02:59:36.805Z,937.07
2022-09-18T03:00:36.991Z,937.06
2022-09-18T03:01:38.004Z,937.05
2022-09-18T03:02:38.289Z,937.04
2022-09-18T03:03:39.189Z,937.08
2022-09-18T03:04:39.933Z,937.07
2022-09-18T03:05:40.543Z,937.04
2022-09-18T03:06:41.152Z,937.08
2022-09-18T03:07:42.055Z,937.02
2022-09-18T03:08:43.088Z,937.06
2022-09-18T03:09:43.677Z,937.02
2022-09-18T03:10:44.586Z,937.04
2022-09-18T03:11:45.644Z,937.05
2022-09-18T03:12:45.825Z,937.03
2022-09-18T03:13:46.912Z,937.04
2022-09-18T03:14:47.602Z,937.05
2022-09-18T03:15:47.821Z,937.04
2022-09-18T03:16:48.217Z,937.03
2022-09-18T03:17:49.257Z,937.01
2022-09-18T03:18:49.882Z,937.02
2022-09-18T03:19:50.495Z,937.05
2022-09-18T03:20:51.398Z,937.05
2022-09-18T03:21:51.579Z,937.05
2022-09-18T03:22:52.208Z,937.1
2022-09-18T03:23:52.505Z,937.09
2022-09-18T03:24:53.397Z,937.08
2022-09-18T03:25:54.302Z,937.1
2022-09-18T03:26:55.297Z,937.06
2022-09-18T03:27:56.205Z,937.1
2022-09-18T03:28:57.085Z,937.03
2022-09-18T03:29:57.227Z,937.04
2022-09-18T03:30:57.455Z,937.09
2022-09-18T03:31:57.762Z,937.1
2022-09-18T03:32:58.124Z,937.12
2022-09-18T03:33:58.995Z,937.12
2022-09-18T03:34:59.181Z,937.15
2022-09-18T03:36:00.086Z,937.08
2022-09-18T03:37:00.984Z,937.04
2022-09-18T03:38:01.180Z,937.06
2022-09-18T03:39:01.689Z,937.01
2022-09-18T03:40:01.954Z,936.96
2022-09-18T03:41:02.423Z,936.95
2022-09-18T03:42:03.443Z,936.99
2022-09-18T03:43:03.626Z,937.02
2022-09-18T03:44:04.128Z,937
2022-09-18T03:45:05.068Z,937.02
2022-09-18T03:46:06.050Z,937
2022-09-18T03:47:06.302Z,937.05
2022-09-18T03:48:07.017Z,937.06
2022-09-18T03:49:08.054Z,937.02
2022-09-18T03:50:08.239Z,937.04
2022-09-18T03:51:08.862Z,937.05
2022-09-18T03:52:09.511Z,937.06
2022-09-18T03:53:10.135Z,937.12
2022-09-18T03:54:11.052Z,937.09
2022-09-18T03:55:11.947Z,937.06
2022-09-18T03:56:12.557Z,937.11
2022-09-18T03:57:13.563Z,937.09
2022-09-18T03:58:14.048Z,937.13
2022-09-18T03:59:14.230Z,937.12
2022-09-18T04:00:14.548Z,937.11
2022-09-18T04:01:15.157Z,937.11
2022-09-18T04:02:15.954Z,937.09
2022-09-18T04:03:16.174Z,937.12
2022-09-18T04:04:16.561Z,937.1
2022-09-18T04:05:16.764Z,937.08
2022-09-18T04:06:16.966Z,937.04
2022-09-18T04:07:17.852Z,937.04
2022-09-18T04:08:18.757Z,937.06
2022-09-18T04:09:19.072Z,937.07
2022-09-18T04:10:19.174Z,937.06
2022-09-18T04:11:19.785Z,937.13
2022-09-18T04:12:20.384Z,937.09
2022-09-18T04:13:20.587Z,937.14
2022-09-18T04:14:21.377Z,937.13
2022-09-18T04:15:22.470Z,937.16
2022-09-18T04:16:22.921Z,937.07
2022-09-18T04:17:23.391Z,937.08
2022-09-18T04:18:23.683Z,937.05
2022-09-18T04:19:24.591Z,937.07
2022-09-18T04:20:25.197Z,937.13
2022-09-18T04:21:25.375Z,937.21
2022-09-18T04:22:26.409Z,937.19
2022-09-18T04:23:27.320Z,937.18
2022-09-18T04:24:27.474Z,937.17
2022-09-18T04:25:27.650Z,937.14
2022-09-18T04:26:28.576Z,937.14
2022-09-18T04:27:29.608Z,937.2
2022-09-18T04:28:29.825Z,937.17
2022-09-18T04:29:30.714Z,937.13
2022-09-18T04:30:31.129Z,937.17
2022-09-18T04:31:31.353Z,937.19
2022-09-18T04:32:32.221Z,937.15
2022-09-18T04:33:32.534Z,937.16
2022-09-18T04:34:33.194Z,937.19
2022-09-18T04:35:33.821Z,937.12
2022-09-18T04:36:34.006Z,937.09
2022-09-18T04:37:34.906Z,937.14
2022-09-18T04:38:35.536Z,937.17
2022-09-18T04:39:35.995Z,937.1
2022-09-18T04:40:36.276Z,937.09
2022-09-18T04:41:36.667Z,937.12
2022-09-18T04:42:37.666Z,937.1
2022-09-18T04:43:38.568Z,937.04
2022-09-18T04:44:38.675Z,937.12
2022-09-18T04:45:39.176Z,937.09
2022-09-18T04:46:40.179Z,937.13
2022-09-18T04:47:40.549Z,937.07
2022-09-18T04:48:41.565Z,937.07
2022-09-18T04:49:42.195Z,937.11
2022-09-18T04:50:43.117Z,937.14
2022-09-18T04:51:43.431Z,937.16
2022-09-18T04:52:43.737Z,937.11
2022-09-18T04:53:44.649Z,937.13
2022-09-18T04:54:45.291Z,937.17
2022-09-18T04:55:45.461Z,937.16
2022-09-18T04:56:46.066Z,937.19
2022-09-18T04:57:49.148Z,937.21
2022-09-18T04:58:47.705Z,937.2
2022-09-18T04:59:48.610Z,937.23
2022-09-18T05:00:49.028Z,937.22
2022-09-18T05:01:49.169Z,937.2
2022-09-18T05:02:49.518Z,937.25
2022-09-18T05:03:50.123Z,937.25
2022-09-18T05:04:50.928Z,937.24
2022-09-18T05:05:51.411Z,937.26
2022-09-18T05:06:52.313Z,937.27
2022-09-18T05:07:52.930Z,937.3
2022-09-18T05:08:53.133Z,937.31
2022-09-18T05:09:53.459Z,937.32
2022-09-18T05:10:53.774Z,937.35
2022-09-18T05:11:54.363Z,937.39
2022-09-18T05:12:54.662Z,937.37
2022-09-18T05:13:54.845Z,937.41
2022-09-18T05:14:55.073Z,937.43
2022-09-18T05:15:55.840Z,937.4
2022-09-18T05:16:56.711Z,937.35
2022-09-18T05:17:57.622Z,937.38
2022-09-18T05:18:58.298Z,937.41
2022-09-18T05:19:58.904Z,937.45
2022-09-18T05:20:59.536Z,937.49
2022-09-18T05:21:59.739Z,937.45
2022-09-18T05:23:00.344Z,937.45
2022-09-18T05:24:00.657Z,937.42
2022-09-18T05:25:01.869Z,937.42
2022-09-18T05:26:02.744Z,937.37
2022-09-18T05:27:03.658Z,937.38
2022-09-18T05:28:04.423Z,937.37
2022-09-18T05:29:05.036Z,937.33
2022-09-18T05:30:05.678Z,937.26
2022-09-18T05:31:06.160Z,937.23
2022-09-18T05:32:06.843Z,937.27
2022-09-18T05:33:07.171Z,937.32
2022-09-18T05:34:08.076Z,937.31
2022-09-18T05:35:08.553Z,937.33
2022-09-18T05:36:08.886Z,937.35
2022-09-18T05:37:09.094Z,937.34
2022-09-18T05:38:09.700Z,937.33
2022-09-18T05:39:13.145Z,937.37
2022-09-18T05:40:11.482Z,937.37
2022-09-18T05:41:11.584Z,937.37
2022-09-18T05:42:12.196Z,937.43
2022-09-18T05:43:12.491Z,937.38
2022-09-18T05:44:13.399Z,937.42
2022-09-18T05:45:14.124Z,937.37
2022-09-18T05:46:15.015Z,937.35
2022-09-18T05:47:15.571Z,937.37
2022-09-18T05:48:16.482Z,937.38
2022-09-18T05:49:16.961Z,937.37
2022-09-18T05:50:17.966Z,937.38
2022-09-18T05:51:18.856Z,937.43
2022-09-18T05:52:19.489Z,937.41
2022-09-18T05:53:19.694Z,937.46
2022-09-18T05:54:20.327Z,937.46
2022-09-18T05:55:21.248Z,937.54
2022-09-18T05:56:21.711Z,937.47
2022-09-18T05:57:22.194Z,937.49
2022-09-18T05:58:22.520Z,937.49
2022-09-18T05:59:22.829Z,937.5
2022-09-18T06:00:23.738Z,937.57
2022-09-18T06:01:24.275Z,937.54
2022-09-18T06:02:24.416Z,937.56
2022-09-18T06:03:25.004Z,937.57
2022-09-18T06:04:25.957Z,937.59
2022-09-18T06:05:26.724Z,937.55
2022-09-18T06:06:26.910Z,937.51
2022-09-18T06:07:27.823Z,937.54
2022-09-18T06:08:28.155Z,937.6
2022-09-18T06:09:28.638Z,937.57
2022-09-18T06:10:29.364Z,937.63
2022-09-18T06:11:30.255Z,937.63
2022-09-18T06:12:30.447Z,937.61
2022-09-18T06:13:31.471Z,937.65
2022-09-18T06:14:31.806Z,937.62
2022-09-18T06:15:32.181Z,937.55
2022-09-18T06:16:32.726Z,937.61
2022-09-18T06:17:32.920Z,937.49
2022-09-18T06:18:33.806Z,937.49
2022-09-18T06:19:34.448Z,937.58
2022-09-18T06:20:35.473Z,937.49
2022-09-18T06:21:36.367Z,937.54
2022-09-18T06:22:37.255Z,937.49
2022-09-18T06:23:37.458Z,937.41
2022-09-18T06:24:38.070Z,937.47
2022-09-18T06:25:38.446Z,937.53
2022-09-18T06:26:39.347Z,937.51
2022-09-18T06:27:40.276Z,937.55
2022-09-18T06:28:40.574Z,937.55
2022-09-18T06:29:41.497Z,937.54
2022-09-18T06:30:41.687Z,937.51
2022-09-18T06:31:42.016Z,937.63
2022-09-18T06:32:42.492Z,937.55
2022-09-18T06:33:43.087Z,937.6
2022-09-18T06:34:44.161Z,937.55
2022-09-18T06:35:44.338Z,937.57
2022-09-18T06:36:44.762Z,937.49
2022-09-18T06:37:45.370Z,937.56
2022-09-18T06:38:45.856Z,937.57
2022-09-18T06:39:46.174Z,937.48
2022-09-18T06:40:46.853Z,937.51
2022-09-18T06:41:47.066Z,937.59
2022-09-18T06:42:47.257Z,937.51
2022-09-18T06:43:48.248Z,937.49
2022-09-18T06:44:48.885Z,937.51
2022-09-18T06:45:49.318Z,937.48
2022-09-18T06:46:49.818Z,937.52
2022-09-18T06:47:50.315Z,937.42
2022-09-18T06:48:51.269Z,937.52
2022-09-18T06:49:51.560Z,937.52
2022-09-18T06:50:52.578Z,937.59
2022-09-18T06:51:53.506Z,937.53
2022-09-18T06:52:54.120Z,937.57
2022-09-18T06:53:54.560Z,937.52
2022-09-18T06:54:54.797Z,937.6
2022-09-18T06:55:55.169Z,937.55
2022-09-18T06:56:55.371Z,937.59
2022-09-18T06:57:55.982Z,937.56
2022-09-18T06:58:56.987Z,937.52
2022-09-18T06:59:57.196Z,937.55
2022-09-18T07:00:57.793Z,937.52
2022-09-18T07:01:58.054Z,937.52
2022-09-18T07:02:59.036Z,937.64
2022-09-18T07:03:59.307Z,937.62
2022-09-18T07:04:59.913Z,937.58
2022-09-18T07:06:00.310Z,937.6
2022-09-18T07:07:00.924Z,937.63
2022-09-18T07:08:01.110Z,937.69
2022-09-18T07:09:02.051Z,937.68
2022-09-18T07:10:05.757Z,937.66
2022-09-18T07:11:03.438Z,937.73
2022-09-18T07:12:04.039Z,937.7
2022-09-18T07:13:04.228Z,937.64
2022-09-18T07:14:04.346Z,937.64
2022-09-18T07:15:04.543Z,937.65
2022-09-18T07:16:05.550Z,937.69
2022-09-18T07:17:05.715Z,937.62
2022-09-18T07:18:06.199Z,937.65
2022-09-18T07:19:06.834Z,937.74
2022-09-18T07:20:07.048Z,937.6
2022-09-18T07:21:07.716Z,937.68
2022-09-18T07:22:08.651Z,937.64
2022-09-18T07:23:08.862Z,937.63
2022-09-18T07:24:09.774Z,937.67
2022-09-18T07:25:10.667Z,937.66
2022-09-18T07:26:11.465Z,937.65
2022-09-18T07:27:11.938Z,937.66
2022-09-18T07:28:12.573Z,937.75
2022-09-18T07:29:13.591Z,937.7
2022-09-18T07:30:14.226Z,937.72
2022-09-18T07:31:14.569Z,937.62
2022-09-18T07:32:14.755Z,937.74
2022-09-18T07:33:14.946Z,937.7
2022-09-18T07:34:15.437Z,937.8
2022-09-18T07:35:15.658Z,937.75
2022-09-18T07:36:16.586Z,937.77
2022-09-18T07:37:17.197Z,937.77
2022-09-18T07:38:17.401Z,937.74
2022-09-18T07:39:18.289Z,937.86
2022-09-18T07:40:19.264Z,937.8
2022-09-18T07:41:19.733Z,937.87
2022-09-18T07:42:19.921Z,937.84
2022-09-18T07:43:20.157Z,937.88
2022-09-18T07:44:21.163Z,937.82
2022-09-18T07:45:22.236Z,937.81
2022-09-18T07:46:22.673Z,937.86
2022-09-18T07:47:23.213Z,937.87
2022-09-18T07:48:24.119Z,937.85
2022-09-18T07:49:25.047Z,937.88
2022-09-18T07:50:26.087Z,937.82
2022-09-18T07:51:26.831Z,937.83
2022-09-18T07:52:27.466Z,937.83
2022-09-18T07:53:27.650Z,937.84
2022-09-18T07:54:28.286Z,937.85
2022-09-18T07:55:28.878Z,937.88
2022-09-18T07:56:29.225Z,937.82
2022-09-18T07:57:29.814Z,937.78
2022-09-18T07:58:30.726Z,937.8
2022-09-18T07:59:31.146Z,937.9
2022-09-18T08:00:31.361Z,937.84
2022-09-18T08:01:32.054Z,937.79
2022-09-18T08:02:33.042Z,937.95
2022-09-18T08:03:35.023Z,937.84
2022-09-18T08:04:34.250Z,937.92
2022-09-18T08:05:34.872Z,937.86
2022-09-18T08:06:35.093Z,937.93
2022-09-18T08:07:36.005Z,937.83
2022-09-18T08:08:36.192Z,937.87
2022-09-18T08:09:36.956Z,937.86
2022-09-18T08:10:37.590Z,937.86
2022-09-18T08:11:38.329Z,937.87
2022-09-18T08:12:38.532Z,937.93
2022-09-18T08:13:39.428Z,937.94
2022-09-18T08:14:40.028Z,937.98
2022-09-18T08:15:40.340Z,937.99
2022-09-18T08:16:40.863Z,938.01
2022-09-18T08:17:41.673Z,938.05
2022-09-18T08:18:42.567Z,938.05
2022-09-18T08:19:43.203Z,938.12
2022-09-18T08:20:43.391Z,938.08
2022-09-18T08:21:44.136Z,938.03
2022-09-18T08:22:45.250Z,938.07
2022-09-18T08:23:45.438Z,938.1
2022-09-18T08:24:46.414Z,938.08
2022-09-18T08:25:47.326Z,938.01
2022-09-18T08:26:47.825Z,938.06
2022-09-18T08:27:48.421Z,938.07
2022-09-18T08:28:49.044Z,938.1
2022-09-18T08:29:49.352Z,938.09
2022-09-18T08:30:49.541Z,938.12
2022-09-18T08:31:50.132Z,938.07
2022-09-18T08:32:50.810Z,938.08
2022-09-18T08:33:51.335Z,938.13
2022-09-18T08:34:52.060Z,938.14
2022-09-18T08:35:52.410Z,938.12
2022-09-18T08:36:52.667Z,938.16
2022-09-18T08:37:53.260Z,938.17
2022-09-18T08:38:53.575Z,938.17
2022-09-18T08:39:54.300Z,938.08
2022-09-18T08:40:54.692Z,938.12
2022-09-18T08:41:55.039Z,938.03
2022-09-18T08:42:55.416Z,938.09
2022-09-18T08:43:56.330Z,938.05
2022-09-18T08:44:56.654Z,938.11
2022-09-18T08:45:57.268Z,938.11
2022-09-18T08:46:57.758Z,938.1
2022-09-18T08:47:58.479Z,938.08
2022-09-18T08:48:58.814Z,938.14
2022-09-18T08:49:59.024Z,938.1
2022-09-18T08:50:59.941Z,938.09
2022-09-18T08:52:00.987Z,938.17
2022-09-18T08:53:01.890Z,938.09
2022-09-18T08:54:02.568Z,938.13
2022-09-18T08:55:03.172Z,938.16
2022-09-18T08:56:04.088Z,938.12
2022-09-18T08:57:04.318Z,938.12
2022-09-18T08:58:04.366Z,938.09
2022-09-18T08:59:05.277Z,938.08
2022-09-18T09:00:05.985Z,938.12
2022-09-18T09:01:06.653Z,938.15
2022-09-18T09:02:07.071Z,938.18
2022-09-18T09:03:07.222Z,938.04
2022-09-18T09:04:07.860Z,938.17
2022-09-18T09:05:08.044Z,938.26
2022-09-18T09:06:08.379Z,938.15
2022-09-18T09:07:08.572Z,938.36
2022-09-18T09:08:09.491Z,938.14
2022-09-18T09:09:14.217Z,938.16
2022-09-18T09:10:10.401Z,938.1
2022-09-18T09:11:10.890Z,938.19
2022-09-18T09:12:11.398Z,938.12
2022-09-18T09:13:12.313Z,938.19
2022-09-18T09:14:12.926Z,938.13
2022-09-18T09:15:13.078Z,938.15
2022-09-18T09:16:14.150Z,938.13
2022-09-18T09:17:14.731Z,938.22
2022-09-18T09:18:15.049Z,938.13
2022-09-18T09:19:15.639Z,938.11
2022-09-18T09:20:16.253Z,938.11
2022-09-18T09:21:17.173Z,938.14
2022-09-18T09:22:17.502Z,938.12
2022-09-18T09:23:18.591Z,938.07
2022-09-18T09:24:19.481Z,938.14
2022-09-18T09:25:20.427Z,938.1
2022-09-18T09:26:20.640Z,938.14
2022-09-18T09:27:21.608Z,938.07
2022-09-18T09:28:22.212Z,938.09
2022-09-18T09:29:22.703Z,938.08
2022-09-18T09:30:23.429Z,938.07
2022-09-18T09:31:23.667Z,938.07
2022-09-18T09:32:24.002Z,938.14
2022-09-18T09:33:24.741Z,938.16
2022-09-18T09:34:25.048Z,938.2
2022-09-18T09:35:25.645Z,938.13
2022-09-18T09:36:26.531Z,938.13
2022-09-18T09:37:29.600Z,938.18
2022-09-18T09:38:27.906Z,938.21
2022-09-18T09:39:28.224Z,938.15
2022-09-18T09:40:28.583Z,938.2
2022-09-18T09:41:28.742Z,938.13
2022-09-18T09:42:29.179Z,938.12
2022-09-18T09:43:29.366Z,938.13
2022-09-18T09:44:29.709Z,938.09
2022-09-18T09:45:30.002Z,938.13
2022-09-18T09:46:30.422Z,938.21
2022-09-18T09:47:30.842Z,938.13
2022-09-18T09:48:31.443Z,938.1
2022-09-18T09:49:31.830Z,938.15
2022-09-18T09:50:32.446Z,938.1
2022-09-18T09:51:33.082Z,938.14
2022-09-18T09:52:33.530Z,938.22
2022-09-18T09:53:33.791Z,938.05
2022-09-18T09:54:34.402Z,938.24
2022-09-18T09:55:35.292Z,938.21
2022-09-18T09:56:36.212Z,938.28
2022-09-18T09:57:37.426Z,938.29
2022-09-18T09:58:37.619Z,938.29
2022-09-18T09:59:38.235Z,938.25
2022-09-18T10:00:38.891Z,938.26
2022-09-18T10:01:39.642Z,938.23
2022-09-18T10:02:40.463Z,938.29
2022-09-18T10:03:41.469Z,938.31
2022-09-18T10:04:41.608Z,938.29
2022-09-18T10:05:42.493Z,938.29
2022-09-18T10:06:43.307Z,938.26
2022-09-18T10:07:43.808Z,938.27
2022-09-18T10:08:44.718Z,938.24
2022-09-18T10:09:45.629Z,938.2
2022-09-18T10:10:45.847Z,938.26
2022-09-18T10:11:46.054Z,938.24
2022-09-18T10:12:46.694Z,938.3
2022-09-18T10:13:47.165Z,938.22
2022-09-18T10:14:48.079Z,938.26
2022-09-18T10:15:49.135Z,938.25
2022-09-18T10:16:50.092Z,938.24
2022-09-18T10:17:50.886Z,938.3
2022-09-18T10:18:51.971Z,938.24
2022-09-18T10:19:52.692Z,938.26
2022-09-18T10:20:53.180Z,938.31
2022-09-18T10:21:53.367Z,938.32
2022-09-18T10:22:53.678Z,938.36
2022-09-18T10:23:54.593Z,938.17
2022-09-18T10:24:55.651Z,938.28
2022-09-18T10:25:56.692Z,938.35
2022-09-18T10:26:57.331Z,938.36
2022-09-18T10:27:58.256Z,938.38
2022-09-18T10:28:58.876Z,938.24
2022-09-18T10:29:59.194Z,938.35
2022-09-18T10:30:59.484Z,938.24
2022-09-18T10:32:00.310Z,938.36
2022-09-18T10:33:01.207Z,938.26
2022-09-18T10:34:02.253Z,938.26
2022-09-18T10:35:02.476Z,938.27
2022-09-18T10:36:02.658Z,938.26
2022-09-18T10:37:03.274Z,938.24
2022-09-18T10:38:03.515Z,938.22
2022-09-18T10:39:03.853Z,938.37
2022-09-18T10:40:04.115Z,938.25
2022-09-18T10:41:04.898Z,938.26
2022-09-18T10:42:05.239Z,938.23
2022-09-18T10:43:05.561Z,938.3
2022-09-18T10:44:06.482Z,938.24
2022-09-18T10:45:07.400Z,938.34
2022-09-18T10:46:08.414Z,938.3
2022-09-18T10:47:08.750Z,938.28
2022-09-18T10:48:09.141Z,938.29
2022-09-18T10:49:09.556Z,938.26
2022-09-18T10:50:09.581Z,938.33
2022-09-18T10:51:10.496Z,938.32
2022-09-18T10:52:11.131Z,938.31
2022-09-18T10:53:11.877Z,938.29
2022-09-18T10:54:12.486Z,938.27
2022-09-18T10:55:12.973Z,938.24
2022-09-18T10:56:13.188Z,938.23
2022-09-18T10:57:13.376Z,938.27
2022-09-18T10:58:13.891Z,938.24
2022-09-18T10:59:14.072Z,938.24
2022-09-18T11:00:14.261Z,938.2
2022-09-18T11:01:14.866Z,938.17
2022-09-18T11:02:15.082Z,938.17
2022-09-18T11:03:15.224Z,938.16
2022-09-18T11:04:15.559Z,938.26
2022-09-18T11:05:15.891Z,938.15
2022-09-18T11:06:16.219Z,938.18
2022-09-18T11:07:16.429Z,938.15
2022-09-18T11:08:17.135Z,938.2
2022-09-18T11:09:17.321Z,938.18
2022-09-18T11:10:17.957Z,938.17
2022-09-18T11:11:18.855Z,938.19
2022-09-18T11:12:19.044Z,938.18
2022-09-18T11:13:19.792Z,938.18
2022-09-18T11:14:20.270Z,938.3
2022-09-18T11:15:21.205Z,938.24
2022-09-18T11:16:21.584Z,938.1
2022-09-18T11:17:22.495Z,938.2
2022-09-18T11:18:22.620Z,938.14
2022-09-18T11:19:23.365Z,938.16
2022-09-18T11:20:23.670Z,938.12
2022-09-18T11:21:24.563Z,938.09
2022-09-18T11:22:25.480Z,938.15
2022-09-18T11:23:25.829Z,938.09
2022-09-18T11:24:26.748Z,938.15
2022-09-18T11:25:27.717Z,938.1
2022-09-18T11:26:28.758Z,938.08
2022-09-18T11:27:29.692Z,938.12
2022-09-18T11:28:30.914Z,938.11
2022-09-18T11:29:31.813Z,938.11
2022-09-18T11:30:32.437Z,938.15
2022-09-18T11:31:33.576Z,938.02
2022-09-18T11:32:34.045Z,938.03
2022-09-18T11:33:34.393Z,938.02
2022-09-18T11:34:35.195Z,938
2022-09-18T11:35:35.501Z,937.99
2022-09-18T11:36:35.715Z,937.98
2022-09-18T11:37:36.647Z,937.96
2022-09-18T11:38:37.563Z,937.89
2022-09-18T11:39:38.472Z,937.86
2022-09-18T11:40:39.116Z,937.94
2022-09-18T11:41:40.043Z,938.01
2022-09-18T11:42:40.237Z,938
2022-09-18T11:43:41.299Z,937.92
2022-09-18T11:44:42.178Z,937.92
2022-09-18T11:45:43.222Z,937.91
2022-09-18T11:46:43.597Z,937.92
2022-09-18T11:47:43.827Z,937.85
2022-09-18T11:48:44.644Z,937.85
2022-09-18T11:49:45.358Z,937.8
2022-09-18T11:50:45.379Z,937.84
2022-09-18T11:51:46.294Z,937.83
2022-09-18T11:52:46.892Z,937.81
2022-09-18T11:53:47.192Z,937.93
2022-09-18T11:54:47.856Z,937.79
2022-09-18T11:55:48.049Z,937.8
2022-09-18T11:56:48.539Z,937.86
2022-09-18T11:57:49.475Z,937.86
2022-09-18T11:58:50.063Z,937.8
2022-09-18T11:59:50.963Z,937.8
2022-09-18T12:00:51.990Z,937.76
2022-09-18T12:01:52.310Z,937.83
2022-09-18T12:02:53.261Z,937.81
2022-09-18T12:03:54.247Z,937.86
2022-09-18T12:04:54.566Z,937.83
2022-09-18T12:05:54.873Z,937.84
2022-09-18T12:06:55.116Z,937.74
2022-09-18T12:07:53.951Z,937.77
2022-09-18T12:08:54.611Z,937.76
2022-09-18T12:09:55.648Z,937.71
2022-09-18T12:10:55.862Z,937.71
2022-09-18T12:11:56.783Z,937.66
2022-09-18T12:12:57.696Z,937.73
2022-09-18T12:13:58.031Z,937.65
2022-09-18T12:14:58.950Z,937.66
2022-09-18T12:15:59.862Z,937.72
2022-09-18T12:17:01.221Z,937.65
2022-09-18T12:18:01.145Z,937.67
2022-09-18T12:19:01.756Z,937.58
2022-09-18T12:20:02.060Z,937.69
2022-09-18T12:21:03.071Z,937.67
2022-09-18T12:22:03.996Z,937.64
2022-09-18T12:23:04.631Z,937.57
2022-09-18T12:24:05.655Z,937.61
2022-09-18T12:25:06.546Z,937.52
2022-09-18T12:26:06.736Z,937.47
2022-09-18T12:27:07.056Z,937.41
2022-09-18T12:28:08.124Z,937.34
2022-09-18T12:29:08.770Z,937.39
2022-09-18T12:30:09.373Z,937.37
2022-09-18T12:31:10.097Z,937.34
2022-09-18T12:32:11.068Z,937.38
2022-09-18T12:33:13.364Z,937.42
2022-09-18T12:34:12.405Z,937.43
2022-09-18T12:35:12.742Z,937.49
2022-09-18T12:36:13.770Z,937.5
2022-09-18T12:37:14.092Z,937.46
2022-09-18T12:38:15.032Z,937.46